Time;durP1;ratioP1;P1;durP2;ratioP2;P2;SDS_P1;SDS_P2;PMS_P1;PMS_P2;Temp;Humidity;BMP_temperature;BMP_pressure;BME280_temperature;BME280_humidity;BME280_pressure;Samples;Min_cycle;Max_cycle;Signal;HPM_P1;HPM_P2
2023/10/24 00:01:30;;;;;;;1321.63;509.10;;;9.60;99.90;;;;;;5060684;28;20055;-90
2023/10/24 00:03:56;;;;;;;1385.93;543.10;;;10.20;99.90;;;;;;5095715;28;20050;-88
2023/10/24 00:06:22;;;;;;;1350.83;520.00;;;9.80;99.90;;;;;;5077157;28;20114;-87
2023/10/24 00:08:47;;;;;;;1381.23;540.87;;;9.60;99.90;;;;;;5083281;28;20037;-89
2023/10/24 00:11:13;;;;;;;1318.03;510.10;;;10.10;99.90;;;;;;5058179;28;20124;-87
2023/10/24 00:13:39;;;;;;;1290.03;499.93;;;10.10;99.90;;;;;;5074925;28;20389;-86
2023/10/24 00:16:19;;;;;;;1348.53;539.50;;;10.20;99.90;;;;;;4979321;28;20054;-87
2023/10/24 00:18:46;;;;;;;1320.70;505.50;;;9.80;99.90;;;;;;5004171;28;20466;-87
2023/10/24 00:21:12;;;;;;;1360.37;533.23;;;9.70;99.90;;;;;;4985916;28;20054;-86
2023/10/24 00:23:38;;;;;;;1354.30;533.67;;;10.40;99.90;;;;;;4977050;28;20081;-86
2023/10/24 00:26:03;;;;;;;1377.73;544.53;;;9.70;99.90;;;;;;4976918;28;20491;-86
2023/10/24 00:28:29;;;;;;;1282.80;495.10;;;9.80;99.90;;;;;;4999471;28;20097;-86
2023/10/24 00:30:55;;;;;;;1289.07;501.10;;;9.80;99.90;;;;;;4978743;28;20124;-86
2023/10/24 00:33:21;;;;;;;1374.87;541.87;;;9.80;99.90;;;;;;4995351;28;20046;-86
2023/10/24 00:35:47;;;;;;;1336.30;515.80;;;9.80;99.90;;;;;;4996117;28;20037;-86
2023/10/24 00:38:12;;;;;;;1337.93;515.60;;;9.80;99.90;;;;;;4990717;28;20046;-86
2023/10/24 00:40:38;;;;;;;1338.30;515.20;;;10.60;99.90;;;;;;4976728;28;20086;-86
2023/10/24 00:43:04;;;;;;;1334.70;517.37;;;10.30;99.90;;;;;;4993964;28;20045;-86
2023/10/24 00:45:32;;;;;;;1378.00;535.93;;;9.80;99.90;;;;;;4992841;28;20513;-87
2023/10/24 00:47:58;;;;;;;1379.73;545.90;;;10.10;99.90;;;;;;4998528;28;20061;-87
2023/10/24 00:50:24;;;;;;;1373.80;542.63;;;9.90;99.90;;;;;;5012324;28;20050;-86
2023/10/24 00:52:50;;;;;;;1341.67;517.93;;;9.70;99.90;;;;;;5027132;28;20116;-88
2023/10/24 00:55:16;;;;;;;1328.50;513.30;;;9.90;99.90;;;;;;5075520;28;20119;-88
2023/10/24 00:57:42;;;;;;;1344.90;521.50;;;10.50;99.90;;;;;;5074511;28;20045;-90
2023/10/24 01:00:09;;;;;;;1377.40;543.80;;;10.30;99.90;;;;;;5056291;28;20183;-88
2023/10/24 01:02:35;;;;;;;1379.90;548.43;;;10.00;99.90;;;;;;5062212;28;20447;-88
2023/10/24 01:05:02;;;;;;;1332.43;516.43;;;10.00;99.90;;;;;;5074019;28;20059;-89
2023/10/24 01:07:28;;;;;;;1382.23;548.60;;;10.00;99.90;;;;;;5056915;28;20055;-88
2023/10/24 01:09:54;;;;;;;1364.70;531.60;;;10.50;99.90;;;;;;5039811;28;20053;-88
2023/10/24 01:12:19;;;;;;;1314.80;504.53;;;10.40;99.90;;;;;;5056315;28;20059;-87
2023/10/24 01:14:45;;;;;;;1378.40;548.50;;;10.00;99.90;;;;;;5057562;28;20040;-89
2023/10/24 01:21:01;;;;;;;1371.90;538.03;;;10.00;99.90;;;;;;5093643;28;20771;-89
2023/10/24 01:23:28;;;;;;;1323.38;512.05;;;10.00;99.90;;;;;;5097437;28;20039;-89
2023/10/24 01:25:56;;;;;;;1338.30;525.33;;;10.10;99.90;;;;;;5079336;28;20047;-89
2023/10/24 01:28:24;;;;;;;1336.87;520.37;;;10.00;99.90;;;;;;5075945;28;20079;-89
2023/10/24 01:30:50;;;;;;;1336.47;521.47;;;10.10;99.90;;;;;;5093975;28;20044;-87
2023/10/24 01:33:15;;;;;;;1340.57;524.00;;;10.10;99.90;;;;;;5092597;28;20036;-91
2023/10/24 01:35:41;;;;;;;1342.73;519.07;;;10.00;99.90;;;;;;5074895;28;20150;-89
2023/10/24 01:38:07;;;;;;;1309.80;510.57;;;10.00;99.90;;;;;;5074061;28;20397;-89
2023/10/24 01:40:32;;;;;;;1340.73;520.20;;;10.00;99.90;;;;;;5073801;28;20042;-87
2023/10/24 01:42:58;;;;;;;1293.63;504.83;;;9.70;99.90;;;;;;5073768;28;20055;-88
2023/10/24 01:45:24;;;;;;;1316.90;512.10;;;10.00;99.90;;;;;;5074544;28;20470;-89
2023/10/24 01:47:49;;;;;;;1372.87;544.33;;;10.00;99.90;;;;;;5057641;28;20048;-89
2023/10/24 01:50:15;;;;;;;1347.43;523.70;;;10.00;99.90;;;;;;5075776;28;20044;-89
2023/10/24 01:52:42;;;;;;;1302.60;501.17;;;10.00;99.90;;;;;;5075840;28;20091;-90
2023/10/24 01:55:07;;;;;;;1368.97;546.30;;;10.10;99.90;;;;;;5073946;28;20044;-87
2023/10/24 01:57:33;;;;;;;1355.57;518.17;;;10.00;99.90;;;;;;5093273;28;20040;-88
2023/10/24 01:59:59;;;;;;;1380.13;548.40;;;10.00;99.90;;;;;;5075953;28;20392;-88
2023/10/24 02:02:26;;;;;;;1339.13;523.67;;;10.00;99.90;;;;;;5075567;28;20052;-88
2023/10/24 02:04:52;;;;;;;1379.27;554.73;;;10.40;99.90;;;;;;5076131;28;20048;-89
2023/10/24 02:07:19;;;;;;;1379.90;556.40;;;10.60;99.90;;;;;;5073090;28;20122;-88
2023/10/24 02:09:45;;;;;;;1355.13;545.63;;;10.00;99.90;;;;;;5057646;28;20047;-88
2023/10/24 02:12:11;;;;;;;1328.87;517.87;;;10.20;99.90;;;;;;5059059;28;20050;-87
2023/10/24 02:14:37;;;;;;;1358.73;540.97;;;10.40;99.90;;;;;;5075588;28;20047;-88
2023/10/24 02:17:03;;;;;;;1370.77;544.60;;;10.00;99.90;;;;;;5085509;28;20024;-88
2023/10/24 02:19:30;;;;;;;1329.17;514.40;;;9.90;99.90;;;;;;5055677;28;20044;-86
2023/10/24 02:21:55;;;;;;;1358.00;526.20;;;10.00;99.90;;;;;;5059853;28;20039;-86
2023/10/24 02:24:21;;;;;;;1378.37;548.13;;;10.60;99.90;;;;;;5075016;28;20044;-87
2023/10/24 02:26:48;;;;;;;1351.97;526.03;;;10.10;99.90;;;;;;5074794;28;20089;-85
2023/10/24 02:29:14;;;;;;;1378.37;553.10;;;9.90;99.90;;;;;;5073000;28;20405;-86
2023/10/24 02:31:40;;;;;;;1297.47;509.73;;;10.00;99.90;;;;;;5075996;28;20070;-86
2023/10/24 02:34:05;;;;;;;1321.13;518.77;;;10.10;99.90;;;;;;5062050;28;20391;-85
2023/10/24 02:36:31;;;;;;;1311.03;511.50;;;10.00;99.90;;;;;;5078051;28;20482;-86
2023/10/24 02:38:57;;;;;;;1330.20;511.93;;;9.90;99.90;;;;;;5066975;28;20051;-86
2023/10/24 02:41:22;;;;;;;1377.90;550.43;;;10.70;99.90;;;;;;5085737;28;20461;-86
2023/10/24 02:43:48;;;;;;;1351.83;527.60;;;10.00;99.90;;;;;;5062243;28;20117;-87
2023/10/24 02:46:14;;;;;;;1359.23;532.50;;;10.00;99.90;;;;;;5078762;28;20544;-86
2023/10/24 02:48:40;;;;;;;1308.53;510.30;;;10.00;99.90;;;;;;5094958;28;20040;-86
2023/10/24 02:51:05;;;;;;;1361.80;526.70;;;10.00;99.90;;;;;;5096512;28;20036;-86
2023/10/24 02:53:31;;;;;;;1370.53;535.33;;;10.20;99.90;;;;;;5095911;28;20040;-85
2023/10/24 02:56:01;;;;;;;1359.17;529.50;;;10.00;99.90;;;;;;5097195;28;20032;-86
2023/10/24 02:58:27;;;;;;;1373.33;542.10;;;10.00;99.90;;;;;;5085573;28;20079;-86
2023/10/24 03:00:53;;;;;;;1379.77;551.80;;;10.60;99.90;;;;;;5059353;28;20082;-87
2023/10/24 03:03:18;;;;;;;1379.23;549.17;;;10.70;99.90;;;;;;5058256;28;20110;-86
2023/10/24 03:05:44;;;;;;;1381.87;552.00;;;10.00;99.90;;;;;;5058162;28;20053;-87
2023/10/24 03:08:10;;;;;;;1382.03;554.50;;;10.00;99.90;;;;;;5083314;28;20079;-86
2023/10/24 03:10:39;;;;;;;1378.00;543.80;;;10.10;99.90;;;;;;5052123;28;20059;-86
2023/10/24 03:13:05;;;;;;;1339.40;517.73;;;10.20;99.90;;;;;;5058111;28;20056;-86
2023/10/24 03:15:33;;;;;;;1381.43;559.17;;;10.20;99.90;;;;;;5076081;28;20033;-85
2023/10/24 03:17:59;;;;;;;1355.50;529.17;;;10.10;99.90;;;;;;5076025;28;20362;-86
2023/10/24 03:20:26;;;;;;;1346.30;522.57;;;10.10;99.90;;;;;;5078379;28;20048;-86
2023/10/24 03:22:52;;;;;;;1349.83;524.30;;;10.10;99.90;;;;;;5078039;28;20422;-86
2023/10/24 03:25:17;;;;;;;1349.40;523.03;;;10.20;99.90;;;;;;5078179;28;20086;-86
2023/10/24 03:27:43;;;;;;;1373.43;553.07;;;10.10;99.90;;;;;;5077625;28;20094;-86
2023/10/24 03:30:09;;;;;;;1373.33;541.87;;;10.20;99.90;;;;;;5060596;28;20036;-86
2023/10/24 03:32:35;;;;;;;1358.80;541.50;;;10.10;99.90;;;;;;5061936;28;20110;-85
2023/10/24 03:35:00;;;;;;;1368.97;544.60;;;10.20;99.90;;;;;;5075615;28;20029;-86
2023/10/24 03:37:26;;;;;;;1374.77;549.40;;;10.60;99.90;;;;;;5075754;28;20522;-86
2023/10/24 03:39:52;;;;;;;1377.90;549.87;;;10.20;99.90;;;;;;5076974;28;20093;-85
2023/10/24 03:42:17;;;;;;;1346.17;524.97;;;10.40;99.90;;;;;;5094139;28;20051;-86
2023/10/24 03:44:43;;;;;;;1373.20;547.37;;;10.60;99.90;;;;;;5076684;28;20079;-86
2023/10/24 03:47:09;;;;;;;1370.03;542.60;;;10.20;99.90;;;;;;5075464;28;20059;-85
2023/10/24 03:49:34;;;;;;;1351.37;528.40;;;10.20;99.90;;;;;;5057772;28;20044;-86
2023/10/24 03:52:01;;;;;;;1345.80;522.07;;;10.80;99.90;;;;;;5058129;28;20044;-85
2023/10/24 03:54:28;;;;;;;1379.97;559.00;;;10.20;99.90;;;;;;5057801;28;20110;-86
2023/10/24 03:56:53;;;;;;;1381.87;558.77;;;10.70;99.90;;;;;;5057824;28;20041;-86
2023/10/24 03:59:19;;;;;;;1378.07;547.30;;;10.20;99.90;;;;;;5075317;28;20512;-86
2023/10/24 04:01:45;;;;;;;1352.90;522.43;;;10.60;99.90;;;;;;5040778;28;20052;-85
2023/10/24 04:04:10;;;;;;;1338.67;522.07;;;10.70;99.90;;;;;;5057940;28;20048;-85
2023/10/24 04:06:36;;;;;;;1351.50;524.00;;;10.50;99.90;;;;;;5056851;28;20456;-85
2023/10/24 04:09:04;;;;;;;1344.07;523.60;;;10.70;99.90;;;;;;5057097;28;20063;-85
2023/10/24 04:11:32;;;;;;;1375.17;549.27;;;10.30;99.90;;;;;;5075200;28;20123;-86
2023/10/24 04:13:58;;;;;;;1352.03;525.33;;;10.40;99.90;;;;;;5058503;28;20047;-86
2023/10/24 04:16:24;;;;;;;1342.80;524.63;;;10.40;99.90;;;;;;5053050;28;20036;-86
2023/10/24 04:18:50;;;;;;;1377.13;554.80;;;10.40;99.90;;;;;;5079846;28;20072;-86
2023/10/24 04:21:17;;;;;;;1359.40;532.27;;;10.40;99.90;;;;;;5057117;28;20429;-85
2023/10/24 04:23:46;;;;;;;1324.53;519.23;;;10.40;99.90;;;;;;5040312;28;20040;-86
2023/10/24 04:26:12;;;;;;;1370.63;552.57;;;10.40;99.90;;;;;;5058329;28;20059;-86
2023/10/24 04:28:40;;;;;;;1375.00;554.30;;;10.40;99.90;;;;;;5056876;28;20056;-86
2023/10/24 04:31:06;;;;;;;1373.20;546.80;;;10.40;99.90;;;;;;5073945;28;20047;-85
2023/10/24 04:33:32;;;;;;;1353.27;526.57;;;10.50;99.90;;;;;;5094223;28;20044;-87
2023/10/24 04:35:58;;;;;;;1349.43;521.97;;;10.60;99.90;;;;;;5076274;28;20070;-86
2023/10/24 04:38:23;;;;;;;1381.57;560.67;;;10.50;99.90;;;;;;5094108;28;20043;-87
2023/10/24 04:40:52;;;;;;;1366.73;528.57;;;10.90;99.90;;;;;;5076823;28;20047;-87
2023/10/24 04:43:18;;;;;;;1378.20;555.67;;;10.90;99.90;;;;;;5075827;28;20048;-87
2023/10/24 04:45:44;;;;;;;1378.03;552.20;;;10.60;99.90;;;;;;5076541;28;20059;-86
2023/10/24 04:48:10;;;;;;;1373.17;548.80;;;10.80;99.90;;;;;;5093213;28;20251;-87
2023/10/24 04:50:39;;;;;;;1375.57;549.67;;;10.50;99.90;;;;;;5059920;28;20036;-87
2023/10/24 04:53:06;;;;;;;1378.97;558.33;;;10.70;99.90;;;;;;5060089;28;20040;-86
2023/10/24 04:55:32;;;;;;;1392.63;541.60;;;11.00;99.90;;;;;;5094348;28;20038;-87
2023/10/24 04:57:59;;;;;;;1381.87;563.43;;;10.50;99.90;;;;;;5094086;28;20047;-85
2023/10/24 05:00:24;;;;;;;1371.27;552.63;;;10.70;99.90;;;;;;5076525;28;20458;-88
2023/10/24 05:02:51;;;;;;;1370.23;549.20;;;10.70;99.90;;;;;;5094220;28;20071;-87
2023/10/24 05:05:17;;;;;;;1369.03;549.87;;;11.10;99.90;;;;;;5059301;28;20044;-87
2023/10/24 05:07:43;;;;;;;1364.20;552.97;;;10.60;99.90;;;;;;5075913;28;20113;-88
2023/10/24 05:10:10;;;;;;;1363.00;549.97;;;11.10;99.90;;;;;;5093608;28;20044;-87
2023/10/24 05:12:36;;;;;;;1356.80;546.93;;;10.80;99.90;;;;;;5094093;28;20048;-87
2023/10/24 05:15:02;;;;;;;1396.87;550.97;;;10.60;99.90;;;;;;5075825;28;20516;-88
2023/10/24 05:17:30;;;;;;;1399.77;547.77;;;10.70;99.90;;;;;;5092536;28;20082;-87
2023/10/24 05:19:59;;;;;;;1391.63;541.40;;;10.60;99.90;;;;;;5093973;28;20048;-86
2023/10/24 05:22:25;;;;;;;1392.47;546.10;;;10.80;99.90;;;;;;5094489;28;20051;-87
2023/10/24 05:24:51;;;;;;;1388.63;545.27;;;10.70;99.90;;;;;;5075840;28;20400;-88
2023/10/24 05:27:17;;;;;;;1390.47;544.43;;;10.70;99.90;;;;;;5075856;28;20481;-88
2023/10/24 05:29:43;;;;;;;1357.30;551.57;;;10.90;99.90;;;;;;5091316;28;20038;-86
2023/10/24 05:32:09;;;;;;;1357.33;552.47;;;10.80;99.90;;;;;;5093789;28;20048;-87
2023/10/24 05:34:34;;;;;;;1393.57;545.20;;;10.80;99.90;;;;;;5075719;28;20492;-87
2023/10/24 05:37:00;;;;;;;1355.13;553.53;;;11.20;99.90;;;;;;5093905;28;20048;-88
2023/10/24 05:39:28;;;;;;;1397.00;554.30;;;10.90;99.90;;;;;;5075700;28;20032;-86
2023/10/24 05:41:54;;;;;;;1395.80;551.20;;;10.80;99.90;;;;;;5075462;28;20074;-87
2023/10/24 05:44:20;;;;;;;1344.13;542.47;;;10.80;99.90;;;;;;5076672;28;20408;-89
2023/10/24 05:46:46;;;;;;;1348.60;545.70;;;10.80;99.90;;;;;;5055328;28;20084;-87
2023/10/24 05:49:12;;;;;;;1400.03;551.17;;;11.00;99.90;;;;;;5073180;28;20067;-87
2023/10/24 05:51:38;;;;;;;1406.67;556.40;;;10.80;99.90;;;;;;5055542;28;20489;-88
2023/10/24 05:54:03;;;;;;;1349.13;550.70;;;10.80;99.90;;;;;;5055533;28;20048;-88
2023/10/24 05:56:32;;;;;;;1393.70;546.53;;;10.80;99.90;;;;;;5073454;28;20055;-89
2023/10/24 05:58:58;;;;;;;1392.77;552.17;;;10.90;99.90;;;;;;5080033;28;20044;-89
2023/10/24 06:01:23;;;;;;;1339.97;541.37;;;11.10;99.90;;;;;;5067356;28;20105;-87
2023/10/24 06:03:49;;;;;;;1397.13;552.70;;;10.80;99.90;;;;;;5085022;28;20044;-89
2023/10/24 06:06:16;;;;;;;1337.87;544.87;;;10.80;99.90;;;;;;5092702;28;20052;-87
2023/10/24 06:08:42;;;;;;;1349.23;551.40;;;10.70;99.90;;;;;;5093669;28;20077;-87
2023/10/24 06:11:07;;;;;;;1399.03;548.37;;;11.40;99.90;;;;;;5075703;28;20074;-89
2023/10/24 06:13:33;;;;;;;1400.33;550.53;;;10.80;99.90;;;;;;5075774;28;20046;-87
2023/10/24 06:16:09;;;;;;;1398.13;556.90;;;10.70;99.90;;;;;;5093441;28;20040;-87
2023/10/24 06:18:36;;;;;;;1338.97;544.03;;;10.70;99.90;;;;;;5074098;28;20055;-88
2023/10/24 06:21:08;;;;;;;1340.80;544.67;;;10.70;99.90;;;;;;5067788;28;20052;-87
2023/10/24 06:23:35;;;;;;;1393.90;547.57;;;10.80;99.90;;;;;;5054997;28;20511;-86
2023/10/24 06:26:01;;;;;;;1391.30;548.83;;;11.20;99.90;;;;;;5055084;28;20044;-89
2023/10/24 06:28:27;;;;;;;1395.27;550.33;;;11.20;99.90;;;;;;5078488;28;20051;-88
2023/10/24 06:31:00;;;;;;;1343.27;549.57;;;11.00;99.90;;;;;;5075139;28;20090;-88
2023/10/24 06:33:27;;;;;;;1342.23;547.17;;;10.80;99.90;;;;;;5074786;28;20500;-89
2023/10/24 06:35:54;;;;;;;1343.33;541.37;;;10.80;99.90;;;;;;5092618;28;20040;-86
2023/10/24 06:38:19;;;;;;;1394.90;554.60;;;10.80;99.90;;;;;;5075155;28;20055;-87
2023/10/24 06:40:46;;;;;;;1338.77;539.17;;;10.80;99.90;;;;;;5074675;28;20089;-87
2023/10/24 06:43:12;;;;;;;1337.50;538.63;;;11.10;99.90;;;;;;5074749;28;20044;-86
2023/10/24 06:45:38;;;;;;;1335.97;541.63;;;10.80;99.90;;;;;;5073574;28;20052;-86
2023/10/24 06:48:06;;;;;;;1337.77;543.30;;;10.80;99.90;;;;;;5092371;28;20044;-87
2023/10/24 06:50:33;;;;;;;1390.00;549.43;;;10.70;99.90;;;;;;5074642;28;20553;-86
2023/10/24 06:52:58;;;;;;;1390.00;550.60;;;10.90;99.90;;;;;;5074869;28;20177;-86
2023/10/24 06:55:24;;;;;;;1338.20;540.67;;;10.80;99.90;;;;;;5074784;28;20064;-87
2023/10/24 06:57:50;;;;;;;1388.77;547.27;;;10.90;99.90;;;;;;5074850;28;20062;-85
2023/10/24 07:00:16;;;;;;;1334.50;541.83;;;10.90;99.90;;;;;;5069454;28;20443;-86
2023/10/24 07:02:42;;;;;;;1335.70;545.67;;;10.90;99.90;;;;;;5092637;28;20044;-84
2023/10/24 07:05:07;;;;;;;1384.60;547.37;;;11.20;99.90;;;;;;5092435;28;20046;-85
2023/10/24 07:07:33;;;;;;;1387.37;551.77;;;10.90;99.90;;;;;;5057559;28;20055;-85
2023/10/24 07:09:59;;;;;;;1385.43;548.80;;;11.50;99.90;;;;;;5074883;28;20048;-84
2023/10/24 07:12:25;;;;;;;1320.00;541.53;;;11.00;99.90;;;;;;5074752;28;20036;-85
2023/10/24 07:14:52;;;;;;;1323.80;545.17;;;10.90;99.90;;;;;;5074467;28;20048;-85
2023/10/24 07:17:18;;;;;;;1323.60;544.67;;;11.00;99.90;;;;;;5074702;28;20115;-83
2023/10/24 07:19:44;;;;;;;1329.83;541.73;;;11.00;99.90;;;;;;5072378;28;20091;-86
2023/10/24 07:22:09;;;;;;;1377.87;553.37;;;11.10;99.90;;;;;;5075989;28;20398;-86
2023/10/24 07:24:35;;;;;;;1376.80;550.37;;;11.00;99.90;;;;;;5084068;28;20044;-85
2023/10/24 07:27:01;;;;;;;1320.50;542.33;;;11.00;99.90;;;;;;5092489;28;20043;-85
2023/10/24 07:29:28;;;;;;;1364.00;551.30;;;11.40;99.90;;;;;;5077994;28;20036;-85
2023/10/24 07:31:54;;;;;;;1313.60;534.57;;;11.00;99.90;;;;;;5077848;28;20044;-86
2023/10/24 07:34:20;;;;;;;1360.67;548.50;;;11.30;99.90;;;;;;5077559;28;20117;-86
2023/10/24 07:36:45;;;;;;;1358.17;543.63;;;11.00;99.90;;;;;;5061043;28;20048;-87
2023/10/24 07:39:14;;;;;;;1345.73;546.97;;;11.30;99.90;;;;;;5077300;28;20032;-86
2023/10/24 07:41:40;;;;;;;1301.03;534.33;;;11.00;99.90;;;;;;5077767;28;20118;-85
2023/10/24 07:44:06;;;;;;;1354.03;542.63;;;11.30;99.90;;;;;;5077769;28;20135;-84
2023/10/24 07:46:32;;;;;;;1290.43;531.03;;;11.10;99.90;;;;;;5077683;28;20081;-84
2023/10/24 07:48:58;;;;;;;1333.77;548.30;;;11.10;99.90;;;;;;5077541;28;20047;-84
2023/10/24 07:51:31;;;;;;;1286.57;520.73;;;10.50;99.90;;;;;;5077805;28;20395;-84
2023/10/24 07:53:57;;;;;;;1283.70;528.37;;;11.10;99.90;;;;;;5077301;28;20113;-84
2023/10/24 07:56:23;;;;;;;1286.73;530.90;;;11.20;99.90;;;;;;5061164;28;20094;-84
2023/10/24 07:58:49;;;;;;;1329.43;543.33;;;11.10;99.90;;;;;;5076805;28;20472;-84
2023/10/24 08:01:14;;;;;;;1325.03;545.57;;;11.10;99.90;;;;;;5095772;28;20403;-84
2023/10/24 08:03:40;;;;;;;1308.30;544.00;;;11.20;99.90;;;;;;5060750;28;20549;-84
2023/10/24 08:06:06;;;;;;;1268.73;532.40;;;11.20;99.90;;;;;;5095632;28;20056;-86
2023/10/24 08:08:32;;;;;;;1305.63;550.90;;;11.20;99.90;;;;;;5095930;28;20126;-87
2023/10/24 08:10:57;;;;;;;1263.53;526.87;;;11.20;99.90;;;;;;5097871;28;20377;-85
2023/10/24 08:13:23;;;;;;;1299.13;554.23;;;11.20;99.90;;;;;;5062118;28;20403;-84
2023/10/24 08:15:51;;;;;;;1303.40;548.97;;;11.20;99.90;;;;;;5096866;28;20043;-84
2023/10/24 08:18:18;;;;;;;1304.50;548.97;;;11.20;99.90;;;;;;5062117;28;20048;-86
2023/10/24 08:20:44;;;;;;;1302.97;559.27;;;11.50;99.90;;;;;;5077958;28;20122;-85
2023/10/24 08:23:09;;;;;;;1296.03;555.13;;;11.20;99.90;;;;;;5096822;28;20076;-85
2023/10/24 08:25:35;;;;;;;1257.80;535.70;;;11.80;99.90;;;;;;5079048;28;20086;-85
2023/10/24 08:28:01;;;;;;;1296.20;564.77;;;11.20;99.90;;;;;;5095455;28;20051;-85
2023/10/24 08:30:28;;;;;;;1298.37;557.57;;;11.30;99.90;;;;;;5076531;28;20047;-84
2023/10/24 08:32:54;;;;;;;1258.77;545.93;;;11.30;99.90;;;;;;5094613;28;20076;-85
2023/10/24 08:35:22;;;;;;;1292.67;566.07;;;11.70;99.90;;;;;;5076753;28;20477;-87
2023/10/24 08:37:48;;;;;;;1291.73;558.07;;;11.30;99.90;;;;;;5076843;28;20052;-85
2023/10/24 08:40:14;;;;;;;1307.33;566.00;;;11.30;99.90;;;;;;5076439;28;20036;-86
2023/10/24 08:42:41;;;;;;;1287.23;549.20;;;11.30;99.90;;;;;;5076657;28;20032;-82
2023/10/24 08:45:08;;;;;;;1255.60;539.43;;;11.30;99.90;;;;;;5075763;28;20093;-85
2023/10/24 08:47:35;;;;;;;1250.47;545.17;;;11.30;99.90;;;;;;5074903;28;20050;-84
2023/10/24 08:50:02;;;;;;;1271.33;540.07;;;11.30;99.90;;;;;;5059953;28;20101;-83
2023/10/24 08:52:32;;;;;;;1279.63;543.97;;;11.30;99.90;;;;;;5076292;28;20075;-84
2023/10/24 08:55:05;;;;;;;1281.00;528.40;;;11.30;99.90;;;;;;5094684;28;20032;-84
2023/10/24 08:57:40;;;;;;;1284.47;526.67;;;11.30;99.90;;;;;;5076024;28;20051;-84
2023/10/24 09:00:10;;;;;;;1346.57;539.00;;;11.40;99.90;;;;;;5076217;28;20472;-87
2023/10/24 09:02:37;;;;;;;1314.57;544.10;;;11.10;99.90;;;;;;5059239;28;20310;-85
2023/10/24 09:05:03;;;;;;;1358.30;549.23;;;11.40;99.90;;;;;;5070870;28;20109;-86
2023/10/24 09:07:29;;;;;;;1308.47;537.83;;;11.30;99.90;;;;;;5094012;28;20492;-87
2023/10/24 09:09:55;;;;;;;1357.87;546.43;;;11.40;99.90;;;;;;5093959;28;20051;-86
2023/10/24 09:12:23;;;;;;;1352.03;547.30;;;11.80;99.90;;;;;;5070916;28;20058;-86
2023/10/24 09:14:49;;;;;;;1302.83;535.30;;;11.40;99.90;;;;;;5094022;28;20040;-87
2023/10/24 09:17:16;;;;;;;1304.33;536.00;;;11.40;99.90;;;;;;5058702;28;20157;-84
2023/10/24 09:19:42;;;;;;;1320.80;549.43;;;11.40;99.90;;;;;;5075458;28;20086;-84
2023/10/24 09:22:09;;;;;;;1376.60;557.23;;;11.40;99.90;;;;;;5066179;28;20043;-86
2023/10/24 09:24:37;;;;;;;1382.83;555.57;;;11.40;99.90;;;;;;5074626;28;20485;-85
2023/10/24 09:27:03;;;;;;;1320.30;536.43;;;11.40;99.90;;;;;;5058633;28;20048;-85
2023/10/24 09:29:32;;;;;;;1381.77;553.87;;;11.40;99.90;;;;;;5075851;28;20393;-87
2023/10/24 09:31:58;;;;;;;1328.80;548.87;;;11.40;99.90;;;;;;5093755;28;20071;-86
2023/10/24 09:34:24;;;;;;;1363.77;548.83;;;11.30;99.90;;;;;;5093596;28;20075;-84
2023/10/24 09:36:50;;;;;;;1330.43;554.47;;;11.50;99.90;;;;;;5075687;28;20044;-85
2023/10/24 09:39:16;;;;;;;1373.50;548.47;;;12.00;99.90;;;;;;5093093;28;20047;-84
2023/10/24 09:41:44;;;;;;;1373.10;556.43;;;11.70;99.90;;;;;;5092642;28;20040;-85
2023/10/24 09:44:10;;;;;;;1375.47;554.60;;;11.40;99.90;;;;;;5075516;28;20044;-85
2023/10/24 09:46:37;;;;;;;1316.73;544.60;;;11.60;99.90;;;;;;5075128;28;22347;-83
2023/10/24 09:49:07;;;;;;;1357.00;547.20;;;11.40;99.90;;;;;;5093452;28;20043;-83
2023/10/24 09:51:36;;;;;;;1358.23;549.90;;;11.40;99.90;;;;;;5075235;28;20052;-83
2023/10/24 09:54:06;;;;;;;1311.97;543.03;;;11.40;99.90;;;;;;5074658;28;20503;-84
2023/10/24 09:56:32;;;;;;;1315.77;542.87;;;11.40;99.90;;;;;;5093415;28;20110;-82
2023/10/24 09:58:58;;;;;;;1363.63;554.53;;;11.90;99.90;;;;;;5093266;28;20048;-83
2023/10/24 10:01:28;;;;;;;1309.90;540.13;;;11.80;99.90;;;;;;5058673;28;20372;-83
2023/10/24 10:04:00;;;;;;;1309.97;540.93;;;11.30;99.90;;;;;;5056434;28;20436;-84
2023/10/24 10:06:30;;;;;;;1311.33;544.33;;;11.40;99.90;;;;;;5089633;28;20117;-85
2023/10/24 10:08:59;;;;;;;1310.47;541.47;;;11.60;99.90;;;;;;5075321;28;20047;-85
2023/10/24 10:11:30;;;;;;;1362.27;554.87;;;11.40;99.90;;;;;;5053273;28;20044;-83
2023/10/24 10:14:39;;;;;;;1355.67;551.43;;;11.30;99.90;;;;;;5055159;28;20049;-84
2023/10/24 10:17:12;;;;;;;1365.53;551.73;;;11.30;99.90;;;;;;5085912;28;20515;-84
2023/10/24 10:19:57;;;;;;;1314.77;544.03;;;11.30;99.90;;;;;;5075043;28;20047;-88
2023/10/24 10:22:46;;;;;;;1364.77;552.97;;;11.30;99.90;;;;;;5075565;28;20048;-88
2023/10/24 10:25:36;;;;;;;1318.10;547.40;;;11.30;99.90;;;;;;5075027;28;20132;-89
2023/10/24 10:28:31;;;;;;;1369.10;550.17;;;11.30;99.90;;;;;;5074174;28;20082;-85
2023/10/24 10:31:17;;;;;;;1361.47;549.23;;;11.50;99.90;;;;;;5074463;28;20567;-84
2023/10/24 10:33:43;;;;;;;;;;;11.30;99.90;;;;;;5075292;28;20067;-85
2023/10/24 10:36:11;;;;;;;1375.40;552.63;;;11.30;99.90;;;;;;5073642;28;19916;-85
2023/10/24 10:38:44;;;;;;;1323.87;549.70;;;11.40;99.90;;;;;;5074274;28;20051;-89
2023/10/24 10:41:23;;;;;;;1372.57;559.07;;;11.30;99.90;;;;;;5074766;28;20040;-85
2023/10/24 10:43:49;;;;;;;1321.70;540.83;;;11.40;99.90;;;;;;5057972;28;20055;-85
2023/10/24 10:46:16;;;;;;;1323.23;546.47;;;11.30;99.90;;;;;;5057744;28;20040;-84
2023/10/24 10:48:43;;;;;;;1375.43;553.97;;;11.40;99.90;;;;;;5092426;28;20048;-85
2023/10/24 10:51:13;;;;;;;1380.13;556.97;;;11.30;99.90;;;;;;5092873;28;20438;-84
2023/10/24 10:53:50;;;;;;;1335.10;557.70;;;11.40;99.90;;;;;;5077171;28;20048;-84
2023/10/24 10:56:23;;;;;;;1329.87;553.07;;;11.40;99.90;;;;;;5077847;28;20047;-84
2023/10/24 10:59:09;;;;;;;1400.87;557.17;;;11.40;99.90;;;;;;5078733;28;20080;-85
2023/10/24 11:01:35;;;;;;;;;;;11.50;99.90;;;;;;5078936;28;20040;-84
2023/10/24 11:04:01;;;;;;;1343.07;560.88;;;11.80;99.90;;;;;;5078493;28;19920;-83
2023/10/24 11:06:28;;;;;;;1392.97;560.57;;;11.60;99.90;;;;;;5070918;28;20049;-85
2023/10/24 11:09:21;;;;;;;1387.00;557.03;;;11.70;99.90;;;;;;5055418;28;20433;-87
2023/10/24 11:12:21;;;;;;;1389.13;556.00;;;11.80;99.90;;;;;;5053177;28;20486;-85
2023/10/24 11:15:19;;;;;;;1382.37;555.13;;;11.80;99.90;;;;;;5054662;28;20080;-83
2023/10/24 11:17:46;;;;;;;1332.43;555.50;;;11.80;99.90;;;;;;4987574;28;20053;-87
2023/10/24 11:20:12;;;;;;;1346.83;573.63;;;11.80;99.90;;;;;;5000971;28;20484;-85
2023/10/24 11:22:38;;;;;;;1349.07;571.93;;;11.80;99.90;;;;;;5033802;28;20095;-86
2023/10/24 11:25:14;;;;;;;1335.80;558.23;;;11.90;99.90;;;;;;5033777;28;20178;-85
2023/10/24 11:27:43;;;;;;;1346.80;567.27;;;11.90;99.90;;;;;;5000900;28;20057;-86
2023/10/24 11:30:09;;;;;;;1407.77;569.30;;;12.00;99.90;;;;;;5017514;28;20467;-86
2023/10/24 11:32:35;;;;;;;1410.10;570.40;;;12.00;99.90;;;;;;5033683;28;20037;-87
2023/10/24 11:35:04;;;;;;;1399.03;561.30;;;12.00;99.90;;;;;;5000418;28;20656;-84
2023/10/24 11:37:29;;;;;;;1351.30;574.10;;;12.00;99.90;;;;;;5017581;28;20108;-88
2023/10/24 11:39:58;;;;;;;1357.73;578.57;;;12.00;99.90;;;;;;5016580;28;20052;-88
2023/10/24 11:42:23;;;;;;;1409.23;562.37;;;11.70;99.90;;;;;;5033798;28;20041;-87
2023/10/24 11:44:49;;;;;;;1402.03;567.70;;;12.00;99.90;;;;;;5033411;28;20541;-87
2023/10/24 11:47:15;;;;;;;1405.47;564.03;;;12.10;99.90;;;;;;5000539;28;20061;-86
2023/10/24 11:49:41;;;;;;;1340.70;575.33;;;12.00;99.90;;;;;;5017047;28;20061;-90
2023/10/24 11:52:07;;;;;;;1348.33;578.63;;;12.10;99.90;;;;;;5016933;28;20037;-86
2023/10/24 11:54:33;;;;;;;1398.00;566.33;;;12.10;99.90;;;;;;5061679;28;20061;-86
2023/10/24 11:57:00;;;;;;;1409.17;569.20;;;12.10;99.90;;;;;;5057800;28;20044;-87
2023/10/24 11:59:35;;;;;;;1402.97;565.53;;;12.10;99.90;;;;;;5058014;28;20393;-87
2023/10/24 12:02:04;;;;;;;1401.35;566.80;;;12.40;99.90;;;;;;5057920;28;20170;-85
2023/10/24 12:04:31;;;;;;;1342.43;559.60;;;12.10;99.90;;;;;;5056478;28;20042;-87
2023/10/24 12:07:04;;;;;;;1348.40;560.33;;;12.10;99.90;;;;;;5074715;28;20088;-85